sensor_id;sensor_type;location;lat;lon;timestamp;temperature;humidity
831;DHT22;397;50.564;7.272;2022-07-24T00:01:31;18.60;99.90
831;DHT22;397;50.564;7.272;2022-07-24T00:03:57;18.70;99.90
831;DHT22;397;50.564;7.272;2022-07-24T00:06:23;18.50;99.90
831;DHT22;397;50.564;7.272;2022-07-24T00:08:49;18.60;99.90
831;DHT22;397;50.564;7.272;2022-07-24T00:11:15;18.60;99.90
831;DHT22;397;50.564;7.272;2022-07-24T00:13:40;18.50;99.90
831;DHT22;397;50.564;7.272;2022-07-24T00:16:07;18.60;99.90
831;DHT22;397;50.564;7.272;2022-07-24T00:18:33;18.70;99.90
831;DHT22;397;50.564;7.272;2022-07-24T00:20:59;18.70;99.90
831;DHT22;397;50.564;7.272;2022-07-24T00:23:25;18.70;99.90
831;DHT22;397;50.564;7.272;2022-07-24T00:25:51;18.80;99.90
831;DHT22;397;50.564;7.272;2022-07-24T00:28:17;18.60;99.90
831;DHT22;397;50.564;7.272;2022-07-24T00:30:43;18.70;99.90
831;DHT22;397;50.564;7.272;2022-07-24T00:33:08;18.80;99.90
831;DHT22;397;50.564;7.272;2022-07-24T00:35:34;18.50;99.90
831;DHT22;397;50.564;7.272;2022-07-24T00:38:00;18.40;99.90
831;DHT22;397;50.564;7.272;2022-07-24T00:40:27;18.50;99.90
831;DHT22;397;50.564;7.272;2022-07-24T00:42:53;18.60;99.90
831;DHT22;397;50.564;7.272;2022-07-24T00:45:19;18.50;99.90
831;DHT22;397;50.564;7.272;2022-07-24T00:47:44;18.40;99.90
831;DHT22;397;50.564;7.272;2022-07-24T00:50:10;18.50;99.90
831;DHT22;397;50.564;7.272;2022-07-24T00:52:37;18.60;99.90
831;DHT22;397;50.564;7.272;2022-07-24T00:55:04;18.50;99.90
831;DHT22;397;50.564;7.272;2022-07-24T00:57:30;18.50;99.90
831;DHT22;397;50.564;7.272;2022-07-24T00:59:56;18.50;99.90
831;DHT22;397;50.564;7.272;2022-07-24T01:02:23;18.20;99.90
831;DHT22;397;50.564;7.272;2022-07-24T01:04:49;18.20;99.90
831;DHT22;397;50.564;7.272;2022-07-24T01:07:16;18.20;99.90
831;DHT22;397;50.564;7.272;2022-07-24T01:09:43;18.30;99.90
831;DHT22;397;50.564;7.272;2022-07-24T01:12:09;18.30;99.90
831;DHT22;397;50.564;7.272;2022-07-24T01:14:35;18.30;99.90
831;DHT22;397;50.564;7.272;2022-07-24T01:17:01;18.30;99.90
831;DHT22;397;50.564;7.272;2022-07-24T01:19:26;18.20;99.90
831;DHT22;397;50.564;7.272;2022-07-24T01:21:53;18.20;99.90
831;DHT22;397;50.564;7.272;2022-07-24T01:24:20;18.20;99.90
831;DHT22;397;50.564;7.272;2022-07-24T01:26:46;18.20;99.90
831;DHT22;397;50.564;7.272;2022-07-24T01:29:14;18.00;99.90
831;DHT22;397;50.564;7.272;2022-07-24T01:31:40;18.00;99.90
831;DHT22;397;50.564;7.272;2022-07-24T01:34:06;18.10;99.90
831;DHT22;397;50.564;7.272;2022-07-24T01:36:32;18.00;99.90
831;DHT22;397;50.564;7.272;2022-07-24T01:38:58;18.00;99.90
831;DHT22;397;50.564;7.272;2022-07-24T01:41:24;18.00;99.90
831;DHT22;397;50.564;7.272;2022-07-24T01:43:50;18.00;99.90
831;DHT22;397;50.564;7.272;2022-07-24T01:46:15;18.00;99.90
831;DHT22;397;50.564;7.272;2022-07-24T01:48:42;18.00;99.90
831;DHT22;397;50.564;7.272;2022-07-24T01:51:09;18.00;99.90
831;DHT22;397;50.564;7.272;2022-07-24T01:53:35;17.90;99.90
831;DHT22;397;50.564;7.272;2022-07-24T01:56:01;17.80;99.90
831;DHT22;397;50.564;7.272;2022-07-24T01:58:27;17.80;99.90
831;DHT22;397;50.564;7.272;2022-07-24T02:00:53;17.70;99.90
831;DHT22;397;50.564;7.272;2022-07-24T02:03:19;17.70;99.90
831;DHT22;397;50.564;7.272;2022-07-24T02:05:45;17.80;99.90
831;DHT22;397;50.564;7.272;2022-07-24T02:08:11;17.80;99.90
831;DHT22;397;50.564;7.272;2022-07-24T02:10:37;17.80;99.90
831;DHT22;397;50.564;7.272;2022-07-24T02:13:04;17.80;99.90
831;DHT22;397;50.564;7.272;2022-07-24T02:15:30;17.80;99.90
831;DHT22;397;50.564;7.272;2022-07-24T02:17:57;17.80;99.90
831;DHT22;397;50.564;7.272;2022-07-24T02:20:23;17.70;99.90
831;DHT22;397;50.564;7.272;2022-07-24T02:22:50;17.70;99.90
831;DHT22;397;50.564;7.272;2022-07-24T02:25:16;17.60;99.90
831;DHT22;397;50.564;7.272;2022-07-24T02:27:42;17.60;99.90
831;DHT22;397;50.564;7.272;2022-07-24T02:30:10;17.60;99.90
831;DHT22;397;50.564;7.272;2022-07-24T02:32:37;17.60;99.90
831;DHT22;397;50.564;7.272;2022-07-24T02:35:04;17.60;99.90
831;DHT22;397;50.564;7.272;2022-07-24T02:37:30;17.60;99.90
831;DHT22;397;50.564;7.272;2022-07-24T02:39:55;17.70;99.90
831;DHT22;397;50.564;7.272;2022-07-24T02:42:21;17.70;99.90
831;DHT22;397;50.564;7.272;2022-07-24T02:44:47;17.70;99.90
831;DHT22;397;50.564;7.272;2022-07-24T02:47:13;17.60;99.90
831;DHT22;397;50.564;7.272;2022-07-24T02:49:38;17.40;99.90
831;DHT22;397;50.564;7.272;2022-07-24T02:52:04;17.40;99.90
831;DHT22;397;50.564;7.272;2022-07-24T02:54:30;17.40;99.90
831;DHT22;397;50.564;7.272;2022-07-24T02:56:56;17.40;99.90
831;DHT22;397;50.564;7.272;2022-07-24T02:59:23;17.40;99.90
831;DHT22;397;50.564;7.272;2022-07-24T03:01:49;17.40;99.90
831;DHT22;397;50.564;7.272;2022-07-24T03:04:15;17.40;99.90
831;DHT22;397;50.564;7.272;2022-07-24T03:06:40;17.40;99.90
831;DHT22;397;50.564;7.272;2022-07-24T03:09:06;17.50;99.90
831;DHT22;397;50.564;7.272;2022-07-24T03:14:53;17.40;99.90
831;DHT22;397;50.564;7.272;2022-07-24T03:17:19;17.40;99.90
831;DHT22;397;50.564;7.272;2022-07-24T03:19:45;17.30;99.90
831;DHT22;397;50.564;7.272;2022-07-24T03:22:11;17.40;99.90
831;DHT22;397;50.564;7.272;2022-07-24T03:24:36;17.40;99.90
831;DHT22;397;50.564;7.272;2022-07-24T03:27:02;17.30;99.90
831;DHT22;397;50.564;7.272;2022-07-24T03:29:28;17.30;99.90
831;DHT22;397;50.564;7.272;2022-07-24T03:31:54;17.40;99.90
831;DHT22;397;50.564;7.272;2022-07-24T03:34:20;17.30;99.90
831;DHT22;397;50.564;7.272;2022-07-24T03:36:46;17.40;99.90
831;DHT22;397;50.564;7.272;2022-07-24T03:39:11;17.40;99.90
831;DHT22;397;50.564;7.272;2022-07-24T03:41:37;17.40;99.90
831;DHT22;397;50.564;7.272;2022-07-24T03:44:03;17.30;99.90
831;DHT22;397;50.564;7.272;2022-07-24T03:46:29;17.30;99.90
831;DHT22;397;50.564;7.272;2022-07-24T03:48:55;17.30;99.90
831;DHT22;397;50.564;7.272;2022-07-24T03:51:21;17.30;99.90
831;DHT22;397;50.564;7.272;2022-07-24T03:53:48;17.40;99.90
831;DHT22;397;50.564;7.272;2022-07-24T03:56:14;17.50;99.90
831;DHT22;397;50.564;7.272;2022-07-24T03:58:41;17.50;99.90
831;DHT22;397;50.564;7.272;2022-07-24T04:01:07;17.40;99.90
831;DHT22;397;50.564;7.272;2022-07-24T04:03:32;17.30;99.90
831;DHT22;397;50.564;7.272;2022-07-24T04:06:00;17.40;99.90
831;DHT22;397;50.564;7.272;2022-07-24T04:08:26;17.20;99.90
831;DHT22;397;50.564;7.272;2022-07-24T04:10:52;17.40;99.90
831;DHT22;397;50.564;7.272;2022-07-24T04:13:20;17.60;99.90
831;DHT22;397;50.564;7.272;2022-07-24T04:15:46;17.60;99.90
831;DHT22;397;50.564;7.272;2022-07-24T04:18:11;17.70;99.90
831;DHT22;397;50.564;7.272;2022-07-24T04:20:37;17.80;99.90
831;DHT22;397;50.564;7.272;2022-07-24T04:23:03;17.80;99.90
831;DHT22;397;50.564;7.272;2022-07-24T04:25:28;17.80;99.90
831;DHT22;397;50.564;7.272;2022-07-24T04:27:54;18.20;99.90
831;DHT22;397;50.564;7.272;2022-07-24T04:30:20;18.60;99.90
831;DHT22;397;50.564;7.272;2022-07-24T04:32:46;19.10;99.90
831;DHT22;397;50.564;7.272;2022-07-24T04:35:11;18.90;99.90
831;DHT22;397;50.564;7.272;2022-07-24T04:37:37;18.90;99.90
831;DHT22;397;50.564;7.272;2022-07-24T04:40:03;19.30;99.90
831;DHT22;397;50.564;7.272;2022-07-24T04:42:29;19.80;99.90
831;DHT22;397;50.564;7.272;2022-07-24T04:44:55;20.20;99.90
831;DHT22;397;50.564;7.272;2022-07-24T04:47:20;20.20;99.90
831;DHT22;397;50.564;7.272;2022-07-24T04:49:46;20.10;99.90
831;DHT22;397;50.564;7.272;2022-07-24T04:52:12;20.70;99.90
831;DHT22;397;50.564;7.272;2022-07-24T04:54:37;20.50;99.90
831;DHT22;397;50.564;7.272;2022-07-24T04:57:04;20.50;99.90
831;DHT22;397;50.564;7.272;2022-07-24T04:59:29;21.10;99.90
831;DHT22;397;50.564;7.272;2022-07-24T05:01:55;21.90;99.90
831;DHT22;397;50.564;7.272;2022-07-24T05:04:21;22.50;99.90
831;DHT22;397;50.564;7.272;2022-07-24T05:06:46;22.40;99.90
831;DHT22;397;50.564;7.272;2022-07-24T05:09:12;22.80;99.90
831;DHT22;397;50.564;7.272;2022-07-24T05:11:39;22.80;99.90
831;DHT22;397;50.564;7.272;2022-07-24T05:14:05;23.00;99.90
831;DHT22;397;50.564;7.272;2022-07-24T05:16:31;22.70;99.90
831;DHT22;397;50.564;7.272;2022-07-24T05:18:57;23.20;99.90
831;DHT22;397;50.564;7.272;2022-07-24T05:21:23;22.70;99.90
831;DHT22;397;50.564;7.272;2022-07-24T05:23:49;22.90;99.90
831;DHT22;397;50.564;7.272;2022-07-24T05:26:14;23.00;99.90
831;DHT22;397;50.564;7.272;2022-07-24T05:28:40;23.20;99.90
831;DHT22;397;50.564;7.272;2022-07-24T05:31:06;24.30;99.90
831;DHT22;397;50.564;7.272;2022-07-24T05:33:34;24.60;99.90
831;DHT22;397;50.564;7.272;2022-07-24T05:36:00;24.30;99.90
831;DHT22;397;50.564;7.272;2022-07-24T05:38:26;24.40;99.90
831;DHT22;397;50.564;7.272;2022-07-24T05:40:52;24.70;99.90
831;DHT22;397;50.564;7.272;2022-07-24T05:43:17;24.70;99.90
831;DHT22;397;50.564;7.272;2022-07-24T05:45:43;24.70;99.90
831;DHT22;397;50.564;7.272;2022-07-24T05:48:09;25.20;99.90
831;DHT22;397;50.564;7.272;2022-07-24T05:50:35;26.00;99.90
831;DHT22;397;50.564;7.272;2022-07-24T05:53:01;25.60;99.90
831;DHT22;397;50.564;7.272;2022-07-24T05:55:26;25.90;99.90
831;DHT22;397;50.564;7.272;2022-07-24T05:57:54;26.40;99.90
831;DHT22;397;50.564;7.272;2022-07-24T06:00:21;25.70;99.90
831;DHT22;397;50.564;7.272;2022-07-24T06:02:47;26.60;99.90
831;DHT22;397;50.564;7.272;2022-07-24T06:05:14;26.80;99.90
831;DHT22;397;50.564;7.272;2022-07-24T06:07:41;26.70;99.90
831;DHT22;397;50.564;7.272;2022-07-24T06:10:08;26.40;99.90
831;DHT22;397;50.564;7.272;2022-07-24T06:12:34;26.10;99.90
831;DHT22;397;50.564;7.272;2022-07-24T06:15:00;26.40;99.90
831;DHT22;397;50.564;7.272;2022-07-24T06:17:25;26.00;99.90
831;DHT22;397;50.564;7.272;2022-07-24T06:19:51;25.90;99.90
831;DHT22;397;50.564;7.272;2022-07-24T06:22:17;25.80;99.90
831;DHT22;397;50.564;7.272;2022-07-24T06:24:43;26.30;99.90
831;DHT22;397;50.564;7.272;2022-07-24T06:27:08;25.90;99.90
831;DHT22;397;50.564;7.272;2022-07-24T06:29:34;26.70;99.90
831;DHT22;397;50.564;7.272;2022-07-24T06:32:00;26.80;99.90
831;DHT22;397;50.564;7.272;2022-07-24T06:34:26;26.60;99.90
831;DHT22;397;50.564;7.272;2022-07-24T06:36:51;26.40;99.90
831;DHT22;397;50.564;7.272;2022-07-24T06:39:18;26.30;99.90
831;DHT22;397;50.564;7.272;2022-07-24T06:41:44;27.20;99.90
831;DHT22;397;50.564;7.272;2022-07-24T06:44:10;27.80;99.90
831;DHT22;397;50.564;7.272;2022-07-24T06:46:35;26.90;99.90
831;DHT22;397;50.564;7.272;2022-07-24T06:49:01;26.40;99.90
831;DHT22;397;50.564;7.272;2022-07-24T06:51:27;27.10;99.90
831;DHT22;397;50.564;7.272;2022-07-24T06:53:53;27.00;99.90
831;DHT22;397;50.564;7.272;2022-07-24T06:56:18;27.60;99.90
831;DHT22;397;50.564;7.272;2022-07-24T06:58:45;26.80;99.90
831;DHT22;397;50.564;7.272;2022-07-24T07:01:11;26.40;99.90
831;DHT22;397;50.564;7.272;2022-07-24T07:03:37;26.50;99.90
831;DHT22;397;50.564;7.272;2022-07-24T07:06:03;26.20;99.90
831;DHT22;397;50.564;7.272;2022-07-24T07:08:29;26.30;99.90
831;DHT22;397;50.564;7.272;2022-07-24T07:10:55;26.00;99.90
831;DHT22;397;50.564;7.272;2022-07-24T07:13:20;26.00;99.90
831;DHT22;397;50.564;7.272;2022-07-24T07:15:46;26.30;99.90
831;DHT22;397;50.564;7.272;2022-07-24T07:18:12;26.30;99.90
831;DHT22;397;50.564;7.272;2022-07-24T07:20:38;26.60;99.90
831;DHT22;397;50.564;7.272;2022-07-24T07:23:05;26.80;99.90
831;DHT22;397;50.564;7.272;2022-07-24T07:25:30;26.10;99.90
831;DHT22;397;50.564;7.272;2022-07-24T07:27:56;26.10;99.90
831;DHT22;397;50.564;7.272;2022-07-24T07:30:22;26.10;99.90
831;DHT22;397;50.564;7.272;2022-07-24T07:32:47;26.50;99.90
831;DHT22;397;50.564;7.272;2022-07-24T07:35:13;26.40;99.90
831;DHT22;397;50.564;7.272;2022-07-24T07:37:39;26.70;99.90
831;DHT22;397;50.564;7.272;2022-07-24T07:40:06;26.50;99.90
831;DHT22;397;50.564;7.272;2022-07-24T07:42:32;26.00;99.90
831;DHT22;397;50.564;7.272;2022-07-24T07:44:57;26.50;99.90
831;DHT22;397;50.564;7.272;2022-07-24T07:47:23;26.40;99.90
831;DHT22;397;50.564;7.272;2022-07-24T07:49:49;26.50;99.90
831;DHT22;397;50.564;7.272;2022-07-24T07:52:15;26.40;99.90
831;DHT22;397;50.564;7.272;2022-07-24T07:54:40;26.50;99.90
831;DHT22;397;50.564;7.272;2022-07-24T07:57:06;26.80;99.90
831;DHT22;397;50.564;7.272;2022-07-24T07:59:32;26.80;99.90
831;DHT22;397;50.564;7.272;2022-07-24T08:01:58;26.70;99.90
831;DHT22;397;50.564;7.272;2022-07-24T08:04:23;27.10;99.90
831;DHT22;397;50.564;7.272;2022-07-24T08:06:50;26.90;99.90
831;DHT22;397;50.564;7.272;2022-07-24T08:09:16;27.10;99.90
831;DHT22;397;50.564;7.272;2022-07-24T08:11:41;27.30;99.90
831;DHT22;397;50.564;7.272;2022-07-24T08:14:07;27.20;99.90
831;DHT22;397;50.564;7.272;2022-07-24T08:16:33;27.30;99.90
831;DHT22;397;50.564;7.272;2022-07-24T08:18:59;27.50;99.90
831;DHT22;397;50.564;7.272;2022-07-24T08:21:24;27.80;99.90
831;DHT22;397;50.564;7.272;2022-07-24T08:23:50;27.50;99.90
831;DHT22;397;50.564;7.272;2022-07-24T08:26:16;27.60;99.90
831;DHT22;397;50.564;7.272;2022-07-24T08:28:42;27.60;99.90
831;DHT22;397;50.564;7.272;2022-07-24T08:31:08;27.50;99.90
831;DHT22;397;50.564;7.272;2022-07-24T08:33:33;27.70;99.90
831;DHT22;397;50.564;7.272;2022-07-24T08:35:59;27.90;99.90
831;DHT22;397;50.564;7.272;2022-07-24T08:38:25;27.80;99.90
831;DHT22;397;50.564;7.272;2022-07-24T08:40:51;27.90;99.90
831;DHT22;397;50.564;7.272;2022-07-24T08:43:17;27.90;99.90
831;DHT22;397;50.564;7.272;2022-07-24T08:45:43;27.90;99.90
831;DHT22;397;50.564;7.272;2022-07-24T08:48:11;28.10;99.90
831;DHT22;397;50.564;7.272;2022-07-24T08:50:39;28.30;99.90
831;DHT22;397;50.564;7.272;2022-07-24T08:53:06;28.50;99.90
831;DHT22;397;50.564;7.272;2022-07-24T08:55:32;28.60;99.90
831;DHT22;397;50.564;7.272;2022-07-24T08:58:00;28.50;99.90
831;DHT22;397;50.564;7.272;2022-07-24T09:00:28;28.60;99.90
831;DHT22;397;50.564;7.272;2022-07-24T09:02:54;28.70;99.90
831;DHT22;397;50.564;7.272;2022-07-24T09:05:20;28.90;98.90
831;DHT22;397;50.564;7.272;2022-07-24T09:07:46;28.80;98.40
831;DHT22;397;50.564;7.272;2022-07-24T09:10:15;29.00;98.70
831;DHT22;397;50.564;7.272;2022-07-24T09:12:43;28.90;98.30
831;DHT22;397;50.564;7.272;2022-07-24T09:15:17;29.00;98.20
831;DHT22;397;50.564;7.272;2022-07-24T09:17:55;28.90;98.20
831;DHT22;397;50.564;7.272;2022-07-24T09:20:23;28.90;97.70
831;DHT22;397;50.564;7.272;2022-07-24T09:22:50;28.90;97.00
831;DHT22;397;50.564;7.272;2022-07-24T09:25:21;29.00;97.00
831;DHT22;397;50.564;7.272;2022-07-24T09:32:58;29.20;96.60
831;DHT22;397;50.564;7.272;2022-07-24T09:37:58;29.30;96.10
831;DHT22;397;50.564;7.272;2022-07-24T09:40:30;29.40;96.50
831;DHT22;397;50.564;7.272;2022-07-24T09:43:11;29.30;97.10
831;DHT22;397;50.564;7.272;2022-07-24T09:45:50;29.40;96.80
831;DHT22;397;50.564;7.272;2022-07-24T09:48:13;29.40;96.10
831;DHT22;397;50.564;7.272;2022-07-24T09:50:48;29.40;94.60
831;DHT22;397;50.564;7.272;2022-07-24T09:53:10;29.50;95.30
831;DHT22;397;50.564;7.272;2022-07-24T09:55:36;29.50;95.20
831;DHT22;397;50.564;7.272;2022-07-24T09:58:10;29.50;94.70
831;DHT22;397;50.564;7.272;2022-07-24T10:00:32;29.60;94.50
831;DHT22;397;50.564;7.272;2022-07-24T10:02:59;29.40;94.00
831;DHT22;397;50.564;7.272;2022-07-24T10:05:29;29.50;94.20
831;DHT22;397;50.564;7.272;2022-07-24T10:07:58;29.60;95.00
831;DHT22;397;50.564;7.272;2022-07-24T10:10:26;29.60;96.00
831;DHT22;397;50.564;7.272;2022-07-24T10:12:53;29.80;95.90
831;DHT22;397;50.564;7.272;2022-07-24T10:15:19;29.90;94.70
831;DHT22;397;50.564;7.272;2022-07-24T10:20:23;29.90;93.80
831;DHT22;397;50.564;7.272;2022-07-24T10:23:01;29.80;92.70
831;DHT22;397;50.564;7.272;2022-07-24T10:25:28;29.70;92.90
831;DHT22;397;50.564;7.272;2022-07-24T10:27:58;29.80;92.80
831;DHT22;397;50.564;7.272;2022-07-24T10:30:25;29.80;92.60
831;DHT22;397;50.564;7.272;2022-07-24T10:32:51;30.10;92.90
831;DHT22;397;50.564;7.272;2022-07-24T10:35:20;30.20;92.30
831;DHT22;397;50.564;7.272;2022-07-24T10:37:59;30.00;92.60
831;DHT22;397;50.564;7.272;2022-07-24T10:40:30;30.00;91.70
831;DHT22;397;50.564;7.272;2022-07-24T10:43:17;30.00;91.30
831;DHT22;397;50.564;7.272;2022-07-24T10:50:59;29.60;90.30
831;DHT22;397;50.564;7.272;2022-07-24T10:53:28;29.50;92.20
831;DHT22;397;50.564;7.272;2022-07-24T10:56:20;29.50;92.10
831;DHT22;397;50.564;7.272;2022-07-24T10:58:52;29.80;91.10
831;DHT22;397;50.564;7.272;2022-07-24T11:01:42;30.00;90.10
831;DHT22;397;50.564;7.272;2022-07-24T11:06:53;30.10;89.80
831;DHT22;397;50.564;7.272;2022-07-24T11:09:21;30.10;89.80
831;DHT22;397;50.564;7.272;2022-07-24T11:14:24;29.70;88.50
831;DHT22;397;50.564;7.272;2022-07-24T11:16:51;29.80;90.90
831;DHT22;397;50.564;7.272;2022-07-24T11:19:36;30.20;88.00
831;DHT22;397;50.564;7.272;2022-07-24T11:22:04;30.10;87.50
831;DHT22;397;50.564;7.272;2022-07-24T11:24:30;30.10;85.80
831;DHT22;397;50.564;7.272;2022-07-24T11:27:04;29.70;86.50
831;DHT22;397;50.564;7.272;2022-07-24T11:29:34;30.00;87.70
831;DHT22;397;50.564;7.272;2022-07-24T11:32:06;30.10;84.40
831;DHT22;397;50.564;7.272;2022-07-24T11:34:34;30.10;85.20
831;DHT22;397;50.564;7.272;2022-07-24T11:37:01;30.10;84.50
831;DHT22;397;50.564;7.272;2022-07-24T11:39:30;30.20;84.90
831;DHT22;397;50.564;7.272;2022-07-24T11:42:03;30.00;83.10
831;DHT22;397;50.564;7.272;2022-07-24T11:46:57;29.60;86.10
831;DHT22;397;50.564;7.272;2022-07-24T11:49:24;29.80;86.40
831;DHT22;397;50.564;7.272;2022-07-24T11:51:51;29.80;83.70
831;DHT22;397;50.564;7.272;2022-07-24T11:54:23;30.10;85.10
831;DHT22;397;50.564;7.272;2022-07-24T11:56:50;30.10;82.90
831;DHT22;397;50.564;7.272;2022-07-24T11:59:32;30.20;81.90
831;DHT22;397;50.564;7.272;2022-07-24T12:02:09;30.10;81.30
831;DHT22;397;50.564;7.272;2022-07-24T12:04:38;30.00;81.70
831;DHT22;397;50.564;7.272;2022-07-24T12:07:13;30.20;82.90
831;DHT22;397;50.564;7.272;2022-07-24T12:09:54;30.30;79.90
831;DHT22;397;50.564;7.272;2022-07-24T12:12:31;30.30;80.10
831;DHT22;397;50.564;7.272;2022-07-24T12:15:04;30.20;80.50
831;DHT22;397;50.564;7.272;2022-07-24T12:17:32;30.20;79.40
831;DHT22;397;50.564;7.272;2022-07-24T12:19:59;30.20;79.70
831;DHT22;397;50.564;7.272;2022-07-24T12:22:26;30.20;78.70
831;DHT22;397;50.564;7.272;2022-07-24T12:24:55;30.20;77.70
831;DHT22;397;50.564;7.272;2022-07-24T12:27:41;30.20;77.30
831;DHT22;397;50.564;7.272;2022-07-24T12:30:26;29.90;77.70
831;DHT22;397;50.564;7.272;2022-07-24T12:35:25;30.20;79.50
831;DHT22;397;50.564;7.272;2022-07-24T12:37:52;30.40;79.10
831;DHT22;397;50.564;7.272;2022-07-24T12:40:33;30.40;77.30
831;DHT22;397;50.564;7.272;2022-07-24T12:42:58;30.30;76.80
831;DHT22;397;50.564;7.272;2022-07-24T12:45:24;30.30;75.80
831;DHT22;397;50.564;7.272;2022-07-24T12:48:20;30.30;77.30
831;DHT22;397;50.564;7.272;2022-07-24T12:51:01;30.30;75.90
831;DHT22;397;50.564;7.272;2022-07-24T12:53:29;30.30;76.30
831;DHT22;397;50.564;7.272;2022-07-24T12:56:10;30.40;75.80
831;DHT22;397;50.564;7.272;2022-07-24T12:58:53;30.30;75.20
831;DHT22;397;50.564;7.272;2022-07-24T13:01:19;30.20;74.20
831;DHT22;397;50.564;7.272;2022-07-24T13:04:00;30.20;73.80
831;DHT22;397;50.564;7.272;2022-07-24T13:06:34;30.30;73.60
831;DHT22;397;50.564;7.272;2022-07-24T13:09:00;30.30;75.80
831;DHT22;397;50.564;7.272;2022-07-24T13:11:26;30.60;72.80
831;DHT22;397;50.564;7.272;2022-07-24T13:13:52;30.60;72.90
831;DHT22;397;50.564;7.272;2022-07-24T13:16:19;30.70;72.20
831;DHT22;397;50.564;7.272;2022-07-24T13:18:45;30.70;73.30
831;DHT22;397;50.564;7.272;2022-07-24T13:21:11;30.80;71.40
831;DHT22;397;50.564;7.272;2022-07-24T13:23:36;30.70;70.40
831;DHT22;397;50.564;7.272;2022-07-24T13:26:02;30.80;70.20
831;DHT22;397;50.564;7.272;2022-07-24T13:28:28;30.80;70.90
831;DHT22;397;50.564;7.272;2022-07-24T13:30:54;30.70;69.40
831;DHT22;397;50.564;7.272;2022-07-24T13:33:19;30.80;71.10
831;DHT22;397;50.564;7.272;2022-07-24T13:35:45;30.80;70.40
831;DHT22;397;50.564;7.272;2022-07-24T13:38:11;30.80;69.60
831;DHT22;397;50.564;7.272;2022-07-24T13:40:36;30.80;68.80
831;DHT22;397;50.564;7.272;2022-07-24T13:43:02;30.70;71.00
831;DHT22;397;50.564;7.272;2022-07-24T13:45:28;30.60;72.50
831;DHT22;397;50.564;7.272;2022-07-24T13:47:54;30.60;72.30
831;DHT22;397;50.564;7.272;2022-07-24T13:50:20;30.70;69.00
831;DHT22;397;50.564;7.272;2022-07-24T13:52:45;30.60;68.90
831;DHT22;397;50.564;7.272;2022-07-24T13:55:11;30.70;68.70
831;DHT22;397;50.564;7.272;2022-07-24T13:57:37;30.60;68.90
831;DHT22;397;50.564;7.272;2022-07-24T14:00:03;30.80;69.60
831;DHT22;397;50.564;7.272;2022-07-24T14:02:29;30.90;68.70
831;DHT22;397;50.564;7.272;2022-07-24T14:04:55;30.90;70.00
831;DHT22;397;50.564;7.272;2022-07-24T14:07:22;30.90;67.70
831;DHT22;397;50.564;7.272;2022-07-24T14:09:47;30.70;68.00
831;DHT22;397;50.564;7.272;2022-07-24T14:12:13;31.00;69.20
831;DHT22;397;50.564;7.272;2022-07-24T14:14:39;30.90;66.30
831;DHT22;397;50.564;7.272;2022-07-24T14:17:05;30.70;66.40
831;DHT22;397;50.564;7.272;2022-07-24T14:19:30;30.70;66.90
831;DHT22;397;50.564;7.272;2022-07-24T14:21:56;30.60;65.70
831;DHT22;397;50.564;7.272;2022-07-24T14:24:22;30.60;66.10
831;DHT22;397;50.564;7.272;2022-07-24T14:26:48;30.60;65.60
831;DHT22;397;50.564;7.272;2022-07-24T14:29:15;30.60;65.80
831;DHT22;397;50.564;7.272;2022-07-24T14:31:41;30.60;66.10
831;DHT22;397;50.564;7.272;2022-07-24T14:34:07;30.70;65.70
831;DHT22;397;50.564;7.272;2022-07-24T14:36:33;30.70;65.60
831;DHT22;397;50.564;7.272;2022-07-24T14:38:58;30.70;66.70
831;DHT22;397;50.564;7.272;2022-07-24T14:41:24;30.70;65.90
831;DHT22;397;50.564;7.272;2022-07-24T14:43:50;31.10;66.30
831;DHT22;397;50.564;7.272;2022-07-24T14:46:16;31.20;66.20
831;DHT22;397;50.564;7.272;2022-07-24T14:48:42;31.20;65.20
831;DHT22;397;50.564;7.272;2022-07-24T14:51:07;31.00;63.70
831;DHT22;397;50.564;7.272;2022-07-24T14:53:33;30.90;64.50
831;DHT22;397;50.564;7.272;2022-07-24T14:55:59;30.90;64.10
831;DHT22;397;50.564;7.272;2022-07-24T14:58:24;31.00;63.70
831;DHT22;397;50.564;7.272;2022-07-24T15:00:50;31.00;64.20
831;DHT22;397;50.564;7.272;2022-07-24T15:03:16;30.90;63.40
831;DHT22;397;50.564;7.272;2022-07-24T15:05:42;30.90;65.10
831;DHT22;397;50.564;7.272;2022-07-24T15:08:08;30.90;62.80
831;DHT22;397;50.564;7.272;2022-07-24T15:10:34;30.80;62.90
831;DHT22;397;50.564;7.272;2022-07-24T15:12:59;30.80;65.30
831;DHT22;397;50.564;7.272;2022-07-24T15:15:26;30.90;62.50
831;DHT22;397;50.564;7.272;2022-07-24T15:17:52;30.80;62.60
831;DHT22;397;50.564;7.272;2022-07-24T15:20:17;30.90;63.10
831;DHT22;397;50.564;7.272;2022-07-24T15:22:43;30.90;61.60
831;DHT22;397;50.564;7.272;2022-07-24T15:25:09;30.80;61.60
831;DHT22;397;50.564;7.272;2022-07-24T15:27:34;30.90;63.90
831;DHT22;397;50.564;7.272;2022-07-24T15:30:00;30.90;64.10
831;DHT22;397;50.564;7.272;2022-07-24T15:32:26;31.00;61.80
831;DHT22;397;50.564;7.272;2022-07-24T15:34:51;31.00;62.20
831;DHT22;397;50.564;7.272;2022-07-24T15:37:17;30.90;63.70
831;DHT22;397;50.564;7.272;2022-07-24T15:39:43;31.00;62.10
831;DHT22;397;50.564;7.272;2022-07-24T15:42:09;30.90;61.10
831;DHT22;397;50.564;7.272;2022-07-24T15:44:35;30.80;60.90
831;DHT22;397;50.564;7.272;2022-07-24T15:47:00;30.80;61.00
831;DHT22;397;50.564;7.272;2022-07-24T15:49:26;30.70;62.10
831;DHT22;397;50.564;7.272;2022-07-24T15:51:52;30.90;61.10
831;DHT22;397;50.564;7.272;2022-07-24T15:54:18;31.00;60.10
831;DHT22;397;50.564;7.272;2022-07-24T15:56:43;31.00;60.20
831;DHT22;397;50.564;7.272;2022-07-24T15:59:09;30.90;61.40
831;DHT22;397;50.564;7.272;2022-07-24T16:01:36;31.00;62.20
831;DHT22;397;50.564;7.272;2022-07-24T16:04:02;31.00;61.10
831;DHT22;397;50.564;7.272;2022-07-24T16:06:28;31.00;60.00
831;DHT22;397;50.564;7.272;2022-07-24T16:08:54;31.10;59.90
831;DHT22;397;50.564;7.272;2022-07-24T16:11:19;31.00;60.00
831;DHT22;397;50.564;7.272;2022-07-24T16:13:45;31.00;61.40
831;DHT22;397;50.564;7.272;2022-07-24T16:16:11;31.00;59.90
831;DHT22;397;50.564;7.272;2022-07-24T16:18:37;31.00;59.80
831;DHT22;397;50.564;7.272;2022-07-24T16:21:03;31.00;60.00
831;DHT22;397;50.564;7.272;2022-07-24T16:23:30;31.10;59.40
831;DHT22;397;50.564;7.272;2022-07-24T16:25:58;30.90;59.20
831;DHT22;397;50.564;7.272;2022-07-24T16:28:25;30.90;60.00
831;DHT22;397;50.564;7.272;2022-07-24T16:30:51;30.80;59.50
831;DHT22;397;50.564;7.272;2022-07-24T16:33:17;30.90;59.60
831;DHT22;397;50.564;7.272;2022-07-24T16:35:42;30.90;59.20
831;DHT22;397;50.564;7.272;2022-07-24T16:38:08;30.90;58.30
831;DHT22;397;50.564;7.272;2022-07-24T16:40:34;30.90;59.40
831;DHT22;397;50.564;7.272;2022-07-24T16:42:59;30.90;58.80
831;DHT22;397;50.564;7.272;2022-07-24T16:45:25;30.90;59.90
831;DHT22;397;50.564;7.272;2022-07-24T16:47:51;30.80;60.40
831;DHT22;397;50.564;7.272;2022-07-24T16:50:17;30.90;59.20
831;DHT22;397;50.564;7.272;2022-07-24T16:52:42;30.90;59.90
831;DHT22;397;50.564;7.272;2022-07-24T16:55:08;30.90;59.50
831;DHT22;397;50.564;7.272;2022-07-24T16:57:34;30.90;59.60
831;DHT22;397;50.564;7.272;2022-07-24T17:00:00;30.90;59.70
831;DHT22;397;50.564;7.272;2022-07-24T17:02:26;30.80;59.00